Time;durP1;ratioP1;P1;durP2;ratioP2;P2;SDS_P1;SDS_P2;PMS_P1;PMS_P2;Temp;Humidity;BMP_temperature;BMP_pressure;BME280_temperature;BME280_humidity;BME280_pressure;Samples;Min_cycle;Max_cycle;Signal;HPM_P1;HPM_P2
2023/04/21 00:00:11;;;;;;;15.50;8.80;;;;;;;;;;5067568;28;20573;-59
2023/04/21 00:02:40;;;;;;;16.13;9.03;;;;;;;;;;5067025;28;20210;-59
2023/04/21 00:05:09;;;;;;;12.67;9.20;;;;;;;;;;5066178;28;20219;-58
2023/04/21 00:07:37;;;;;;;14.00;8.27;;;;;;;;;;5066120;28;20268;-58
2023/04/21 00:10:05;;;;;;;17.27;8.87;;;;;;;;;;5065254;28;20640;-58
2023/04/21 00:12:32;;;;;;;14.90;9.57;;;;;;;;;;5052282;28;20215;-58
2023/04/21 00:15:00;;;;;;;16.50;9.47;;;;;;;;;;5051775;28;20210;-58
2023/04/21 00:17:27;;;;;;;15.73;9.13;;;;;;;;;;5047439;28;20558;-58
2023/04/21 00:19:55;;;;;;;14.27;9.17;;;;;;;;;;5048683;28;20211;-58
2023/04/21 00:22:22;;;;;;;14.80;8.57;;;;;;;;;;5047519;28;20231;-59
2023/04/21 00:24:49;;;;;;;14.27;8.53;;;;;;;;;;5047518;28;20210;-59
2023/04/21 00:27:16;;;;;;;19.00;8.83;;;;;;;;;;5063718;28;20211;-61
2023/04/21 00:29:43;;;;;;;13.03;8.03;;;;;;;;;;5056006;28;20254;-58
2023/04/21 00:32:11;;;;;;;13.93;7.90;;;;;;;;;;5064588;28;20704;-59
2023/04/21 00:34:38;;;;;;;13.83;8.50;;;;;;;;;;5048268;28;20907;-58
2023/04/21 00:37:05;;;;;;;18.47;8.60;;;;;;;;;;5047524;28;20211;-59
2023/04/21 00:39:32;;;;;;;17.70;9.27;;;;;;;;;;5055137;28;20291;-58
2023/04/21 00:42:00;;;;;;;17.57;9.07;;;;;;;;;;5049653;28;20235;-58
2023/04/21 00:44:27;;;;;;;17.23;9.40;;;;;;;;;;5063742;28;20280;-58
2023/04/21 00:46:54;;;;;;;17.40;8.63;;;;;;;;;;5063127;28;20581;-59
2023/04/21 00:49:23;;;;;;;18.37;9.43;;;;;;;;;;5047827;28;20670;-59
2023/04/21 00:51:50;;;;;;;13.23;8.90;;;;;;;;;;5048670;28;20199;-59
2023/04/21 00:54:18;;;;;;;15.80;8.83;;;;;;;;;;5056559;28;20207;-59
2023/04/21 00:56:45;;;;;;;16.57;7.50;;;;;;;;;;5054554;28;20642;-59
2023/04/21 00:59:12;;;;;;;19.27;9.70;;;;;;;;;;5064190;28;20218;-59
2023/04/21 01:01:40;;;;;;;16.07;8.63;;;;;;;;;;5063614;28;20218;-59
2023/04/21 01:04:09;;;;;;;18.77;9.70;;;;;;;;;;5061226;28;20202;-58
2023/04/21 01:06:37;;;;;;;13.53;8.10;;;;;;;;;;5058507;28;20203;-59
2023/04/21 01:09:04;;;;;;;15.83;9.73;;;;;;;;;;5063790;28;20211;-59
2023/04/21 01:11:34;;;;;;;16.93;8.97;;;;;;;;;;5062301;28;20195;-59
2023/04/21 01:14:01;;;;;;;14.80;9.77;;;;;;;;;;5062518;28;20226;-60
2023/04/21 01:16:28;;;;;;;21.83;9.20;;;;;;;;;;5066648;28;20214;-59
2023/04/21 01:18:55;;;;;;;19.93;9.50;;;;;;;;;;5062362;28;20657;-59
2023/04/21 01:21:23;;;;;;;17.47;9.60;;;;;;;;;;5055920;28;20301;-59
2023/04/21 01:23:51;;;;;;;19.07;9.47;;;;;;;;;;5064382;28;20310;-58
2023/04/21 01:26:20;;;;;;;19.83;9.40;;;;;;;;;;5066112;28;20215;-58
2023/04/21 01:28:47;;;;;;;16.77;9.33;;;;;;;;;;5067139;28;20203;-59
2023/04/21 01:31:14;;;;;;;17.77;9.20;;;;;;;;;;5060263;28;20208;-59
2023/04/21 01:33:42;;;;;;;15.40;9.17;;;;;;;;;;5057233;28;20227;-59
2023/04/21 01:36:09;;;;;;;17.93;10.03;;;;;;;;;;5057995;28;20208;-59
2023/04/21 01:38:39;;;;;;;16.00;8.67;;;;;;;;;;5064696;28;20261;-59
2023/04/21 01:41:08;;;;;;;17.37;8.90;;;;;;;;;;5064651;28;20235;-59
2023/04/21 01:43:36;;;;;;;19.27;9.10;;;;;;;;;;5067615;28;20211;-58
2023/04/21 01:46:03;;;;;;;16.37;9.00;;;;;;;;;;5064009;28;20268;-59
2023/04/21 01:48:30;;;;;;;15.90;8.57;;;;;;;;;;5065814;28;20290;-58
2023/04/21 01:50:57;;;;;;;16.87;9.17;;;;;;;;;;5060406;28;20203;-59
2023/04/21 01:53:25;;;;;;;16.20;8.57;;;;;;;;;;5054688;28;20227;-59
2023/04/21 01:55:52;;;;;;;15.67;8.90;;;;;;;;;;5060167;28;20238;-59
2023/04/21 01:58:21;;;;;;;17.53;9.90;;;;;;;;;;5054871;28;20213;-59
2023/04/21 02:00:48;;;;;;;15.10;8.67;;;;;;;;;;5067748;28;20294;-59
2023/04/21 02:03:15;;;;;;;19.20;9.33;;;;;;;;;;5058249;28;20302;-58
2023/04/21 02:05:42;;;;;;;17.13;9.40;;;;;;;;;;5064048;28;20316;-59
2023/04/21 02:08:09;;;;;;;16.83;9.53;;;;;;;;;;5064346;28;20202;-59
2023/04/21 02:10:36;;;;;;;14.87;9.07;;;;;;;;;;5066256;28;20199;-59
2023/04/21 02:13:03;;;;;;;17.47;9.37;;;;;;;;;;5067278;28;20518;-59
2023/04/21 02:15:32;;;;;;;18.77;9.07;;;;;;;;;;5062480;28;20215;-58
2023/04/21 02:17:59;;;;;;;16.23;9.30;;;;;;;;;;5059428;28;20203;-59
2023/04/21 02:20:26;;;;;;;16.70;9.03;;;;;;;;;;5055481;28;20200;-58
2023/04/21 02:22:53;;;;;;;15.63;9.40;;;;;;;;;;5055199;28;20358;-59
2023/04/21 02:25:20;;;;;;;15.47;8.60;;;;;;;;;;5056051;28;20203;-59
2023/04/21 02:27:47;;;;;;;17.13;8.27;;;;;;;;;;5066800;28;20669;-59
2023/04/21 02:30:14;;;;;;;14.07;8.27;;;;;;;;;;5057781;28;20207;-59
2023/04/21 02:32:43;;;;;;;17.20;8.87;;;;;;;;;;5060557;28;20226;-59
2023/04/21 02:35:10;;;;;;;16.63;9.00;;;;;;;;;;5049783;28;20218;-59
2023/04/21 02:37:37;;;;;;;13.47;8.23;;;;;;;;;;5049771;28;20605;-59
2023/04/21 02:40:05;;;;;;;19.13;9.03;;;;;;;;;;5049835;28;20261;-59
2023/04/21 02:42:33;;;;;;;16.83;8.90;;;;;;;;;;5050022;28;20230;-59
2023/04/21 02:45:00;;;;;;;16.20;8.83;;;;;;;;;;5055389;28;20693;-59
2023/04/21 02:47:27;;;;;;;18.37;9.77;;;;;;;;;;5057260;28;20211;-59
2023/04/21 02:49:56;;;;;;;15.70;8.87;;;;;;;;;;5065253;28;20202;-58
2023/04/21 02:52:23;;;;;;;14.73;8.30;;;;;;;;;;5059930;28;20241;-59
2023/04/21 02:54:50;;;;;;;16.77;8.53;;;;;;;;;;5052929;28;20226;-59
2023/04/21 02:57:17;;;;;;;20.93;9.10;;;;;;;;;;5063977;28;20588;-59
2023/04/21 02:59:44;;;;;;;18.40;9.20;;;;;;;;;;5069312;28;20218;-59
2023/04/21 03:02:11;;;;;;;15.03;9.47;;;;;;;;;;5057329;28;20234;-59
2023/04/21 03:04:38;;;;;;;14.10;8.17;;;;;;;;;;5068913;28;20231;-59
2023/04/21 03:07:12;;;;;;;17.57;9.30;;;;;;;;;;5066756;28;20276;-59
2023/04/21 03:09:39;;;;;;;19.37;9.97;;;;;;;;;;5067104;28;20298;-59
2023/04/21 03:12:06;;;;;;;17.97;9.37;;;;;;;;;;5059424;28;20208;-59
2023/04/21 03:14:33;;;;;;;14.93;8.87;;;;;;;;;;5052706;28;20334;-59
2023/04/21 03:17:00;;;;;;;14.50;8.33;;;;;;;;;;5057152;28;20215;-59
2023/04/21 03:19:27;;;;;;;14.33;8.53;;;;;;;;;;5049544;28;20254;-59
2023/04/21 03:21:54;;;;;;;18.57;8.33;;;;;;;;;;5060415;28;20214;-59
2023/04/21 03:24:22;;;;;;;17.80;9.87;;;;;;;;;;5067280;28;20203;-59
2023/04/21 03:26:49;;;;;;;20.40;9.63;;;;;;;;;;5061826;28;20215;-59
2023/04/21 03:29:16;;;;;;;15.60;9.40;;;;;;;;;;5062511;28;20213;-59
2023/04/21 03:31:43;;;;;;;17.10;8.23;;;;;;;;;;5064107;28;20311;-58
2023/04/21 03:34:10;;;;;;;16.37;9.03;;;;;;;;;;5062804;28;20255;-59
2023/04/21 03:36:37;;;;;;;12.53;7.90;;;;;;;;;;5063499;28;20218;-59
2023/04/21 03:39:05;;;;;;;21.27;8.80;;;;;;;;;;5063124;28;20739;-59
2023/04/21 03:41:33;;;;;;;25.50;9.30;;;;;;;;;;5063764;28;20296;-59
2023/04/21 03:44:00;;;;;;;15.37;8.67;;;;;;;;;;5063908;28;20302;-59
2023/04/21 03:46:27;;;;;;;18.10;9.40;;;;;;;;;;5061479;28;20212;-59
2023/04/21 03:48:54;;;;;;;17.80;9.73;;;;;;;;;;5057312;28;20212;-58
2023/04/21 03:51:21;;;;;;;18.67;9.80;;;;;;;;;;5050000;28;20207;-59
2023/04/21 03:53:48;;;;;;;16.10;8.37;;;;;;;;;;5052485;28;20232;-59
2023/04/21 03:56:15;;;;;;;16.77;8.70;;;;;;;;;;5052872;28;20211;-58
2023/04/21 03:58:44;;;;;;;5.80;3.83;;;;;;;;;;5054030;28;21733;-58
2023/04/21 04:01:11;;;;;;;16.53;8.40;;;;;;;;;;5057630;28;20204;-58
2023/04/21 04:03:38;;;;;;;12.53;7.83;;;;;;;;;;5055219;28;20207;-59
2023/04/21 04:06:05;;;;;;;18.57;9.13;;;;;;;;;;5052226;28;20200;-59
2023/04/21 04:08:32;;;;;;;14.63;8.10;;;;;;;;;;5051772;28;20217;-59
2023/04/21 04:10:59;;;;;;;13.93;7.10;;;;;;;;;;5055529;28;20226;-58
2023/04/21 04:13:27;;;;;;;18.53;7.87;;;;;;;;;;5066128;28;20246;-58
2023/04/21 04:15:56;;;;;;;14.40;8.07;;;;;;;;;;5060514;28;20202;-58
2023/04/21 04:18:23;;;;;;;12.60;7.30;;;;;;;;;;5066399;28;20211;-58
2023/04/21 04:20:50;;;;;;;18.30;8.73;;;;;;;;;;5060762;28;20210;-58
2023/04/21 04:23:17;;;;;;;10.10;6.40;;;;;;;;;;5057324;28;20249;-58
2023/04/21 04:25:46;;;;;;;8.80;5.60;;;;;;;;;;5063598;28;20214;-58
2023/04/21 04:28:14;;;;;;;14.57;8.00;;;;;;;;;;5064997;28;20753;-58
2023/04/21 04:30:41;;;;;;;16.83;8.03;;;;;;;;;;5052374;28;20203;-58
2023/04/21 04:33:10;;;;;;;20.33;9.33;;;;;;;;;;5059834;28;20207;-59
2023/04/21 04:35:37;;;;;;;21.13;8.20;;;;;;;;;;5049543;28;20213;-58
2023/04/21 04:38:06;;;;;;;13.07;5.93;;;;;;;;;;5051318;28;20203;-59
2023/04/21 04:40:33;;;;;;;10.03;7.13;;;;;;;;;;5066182;28;20325;-59
2023/04/21 04:43:01;;;;;;;21.37;8.57;;;;;;;;;;5066154;28;20209;-59
2023/04/21 04:45:31;;;;;;;18.53;8.13;;;;;;;;;;5056508;28;20238;-58
2023/04/21 04:47:58;;;;;;;15.23;8.27;;;;;;;;;;5059465;28;20211;-58
2023/04/21 04:50:27;;;;;;;16.43;8.30;;;;;;;;;;5068439;28;20211;-59
2023/04/21 04:52:55;;;;;;;15.00;8.53;;;;;;;;;;5063176;28;20230;-58
2023/04/21 04:55:22;;;;;;;22.87;9.23;;;;;;;;;;5067160;28;21016;-58
2023/04/21 04:57:49;;;;;;;16.47;9.17;;;;;;;;;;5059286;28;20214;-58
2023/04/21 05:00:16;;;;;;;18.13;8.43;;;;;;;;;;5062908;28;20669;-58
2023/04/21 05:02:43;;;;;;;30.33;8.83;;;;;;;;;;5047005;28;20204;-58
2023/04/21 05:05:10;;;;;;;23.20;8.90;;;;;;;;;;5060142;28;20716;-59
2023/04/21 05:07:38;;;;;;;17.23;8.03;;;;;;;;;;5058726;28;20203;-58
2023/04/21 05:10:06;;;;;;;11.37;7.40;;;;;;;;;;5051802;28;20203;-59
2023/04/21 05:12:33;;;;;;;14.87;7.47;;;;;;;;;;5051276;28;20206;-58
2023/04/21 05:15:00;;;;;;;14.97;7.40;;;;;;;;;;5050904;28;20635;-59
2023/04/21 05:17:29;;;;;;;16.13;8.27;;;;;;;;;;5052323;28;20209;-59
2023/04/21 05:19:56;;;;;;;12.37;6.93;;;;;;;;;;5051812;28;20318;-59
2023/04/21 05:22:23;;;;;;;18.83;8.97;;;;;;;;;;5057048;28;20579;-59
2023/04/21 05:24:52;;;;;;;14.33;8.30;;;;;;;;;;5052516;28;20208;-59
2023/04/21 05:27:19;;;;;;;14.70;7.80;;;;;;;;;;5048744;28;20212;-59
2023/04/21 05:29:46;;;;;;;16.17;7.87;;;;;;;;;;5058201;28;20229;-58
2023/04/21 05:32:13;;;;;;;12.37;7.17;;;;;;;;;;5059712;28;20206;-58
2023/04/21 05:34:40;;;;;;;17.87;8.53;;;;;;;;;;5068084;28;20242;-59
2023/04/21 05:37:07;;;;;;;16.03;8.80;;;;;;;;;;5063372;28;20219;-58
2023/04/21 05:39:34;;;;;;;10.97;6.80;;;;;;;;;;5071222;28;20304;-58
2023/04/21 05:42:03;;;;;;;24.90;8.53;;;;;;;;;;5058221;28;20242;-58
2023/04/21 05:44:30;;;;;;;13.03;7.53;;;;;;;;;;5051528;28;20204;-58
2023/04/21 05:46:58;;;;;;;14.17;8.40;;;;;;;;;;5063083;28;20225;-58
2023/04/21 05:49:25;;;;;;;22.57;7.67;;;;;;;;;;5069765;28;20218;-59
2023/04/21 05:51:52;;;;;;;20.97;9.03;;;;;;;;;;5063746;28;20207;-58
2023/04/21 05:54:19;;;;;;;18.57;8.10;;;;;;;;;;5068808;28;20241;-59
2023/04/21 05:56:47;;;;;;;24.20;7.93;;;;;;;;;;5067097;28;20199;-59
2023/04/21 05:59:15;;;;;;;14.97;6.53;;;;;;;;;;5070889;28;20207;-59
2023/04/21 06:01:42;;;;;;;16.60;7.50;;;;;;;;;;5067772;28;20260;-58
2023/04/21 06:04:09;;;;;;;23.53;8.77;;;;;;;;;;5070229;28;20664;-58
2023/04/21 06:06:37;;;;;;;21.30;9.80;;;;;;;;;;5061358;28;20211;-59
2023/04/21 06:09:04;;;;;;;15.03;9.00;;;;;;;;;;5068165;28;20261;-59
2023/04/21 06:11:45;;;;;;;24.27;9.50;;;;;;;;;;5062756;28;20211;-60
2023/04/21 06:14:12;;;;;;;13.97;7.63;;;;;;;;;;5060446;28;20235;-58
2023/04/21 06:16:40;;;;;;;17.43;9.00;;;;;;;;;;5061127;28;20589;-58
2023/04/21 06:19:07;;;;;;;18.90;8.60;;;;;;;;;;5054940;28;20208;-59
2023/04/21 06:21:34;;;;;;;17.73;8.93;;;;;;;;;;5054857;28;20222;-59
2023/04/21 06:24:01;;;;;;;22.53;8.77;;;;;;;;;;5057024;28;20322;-59
2023/04/21 06:26:28;;;;;;;19.23;8.60;;;;;;;;;;5060131;28;20618;-59
2023/04/21 06:28:55;;;;;;;22.30;8.80;;;;;;;;;;5070302;28;20214;-59
2023/04/21 06:31:22;;;;;;;12.47;7.63;;;;;;;;;;5068224;28;20211;-58
2023/04/21 06:33:51;;;;;;;21.60;10.73;;;;;;;;;;5050198;28;20674;-58
2023/04/21 06:36:18;;;;;;;25.43;10.03;;;;;;;;;;5057479;28;20210;-58
2023/04/21 06:38:45;;;;;;;13.70;8.07;;;;;;;;;;5070165;28;20344;-59
2023/04/21 06:41:12;;;;;;;15.30;8.80;;;;;;;;;;5061689;28;20235;-59
2023/04/21 06:43:39;;;;;;;17.40;10.20;;;;;;;;;;5062575;28;20749;-59
2023/04/21 06:46:06;;;;;;;22.47;10.03;;;;;;;;;;5066613;28;20195;-59
2023/04/21 06:48:33;;;;;;;21.43;9.40;;;;;;;;;;5060895;28;20211;-58
2023/04/21 06:51:02;;;;;;;19.33;9.13;;;;;;;;;;5069784;28;20661;-59
2023/04/21 06:53:29;;;;;;;15.33;8.20;;;;;;;;;;5050834;28;20208;-59
2023/04/21 06:55:56;;;;;;;19.97;9.43;;;;;;;;;;5049941;28;20723;-59
2023/04/21 06:58:23;;;;;;;19.33;8.97;;;;;;;;;;5066155;28;20219;-59
2023/04/21 07:00:50;;;;;;;18.43;8.83;;;;;;;;;;5052089;28;20204;-59
2023/04/21 07:03:17;;;;;;;22.17;9.43;;;;;;;;;;5060672;28;20234;-59
2023/04/21 07:05:44;;;;;;;14.10;6.87;;;;;;;;;;5059138;28;20228;-58
2023/04/21 07:08:13;;;;;;;19.40;9.83;;;;;;;;;;5052743;28;20241;-58
2023/04/21 07:10:40;;;;;;;16.57;9.37;;;;;;;;;;5069174;28;20884;-58
2023/04/21 07:13:07;;;;;;;19.70;9.30;;;;;;;;;;5049363;28;20272;-59
2023/04/21 07:15:34;;;;;;;23.60;10.07;;;;;;;;;;5048945;28;20227;-59
2023/04/21 07:18:01;;;;;;;16.80;9.00;;;;;;;;;;5048881;28;20566;-59
2023/04/21 07:20:28;;;;;;;17.37;9.00;;;;;;;;;;5048966;28;20315;-59
2023/04/21 07:22:55;;;;;;;22.77;8.87;;;;;;;;;;5057167;28;20281;-59
2023/04/21 07:25:24;;;;;;;12.90;7.93;;;;;;;;;;5058145;28;20211;-59
2023/04/21 07:27:51;;;;;;;15.27;8.87;;;;;;;;;;5067853;28;20583;-59
2023/04/21 07:30:18;;;;;;;16.67;8.30;;;;;;;;;;5067843;28;20211;-59
2023/04/21 07:32:45;;;;;;;17.03;8.90;;;;;;;;;;5049319;28;20220;-59
2023/04/21 07:35:12;;;;;;;16.27;8.53;;;;;;;;;;5047823;28;20239;-59
2023/04/21 07:37:39;;;;;;;18.10;8.67;;;;;;;;;;5064895;28;20211;-60
2023/04/21 07:40:07;;;;;;;17.10;8.47;;;;;;;;;;5068552;28;20212;-62
2023/04/21 07:42:35;;;;;;;19.73;9.57;;;;;;;;;;5066579;28;20211;-63
2023/04/21 07:45:03;;;;;;;18.23;10.17;;;;;;;;;;5068542;28;20207;-60
2023/04/21 07:47:30;;;;;;;17.60;8.80;;;;;;;;;;5049141;28;20204;-61
2023/04/21 07:49:57;;;;;;;17.80;8.50;;;;;;;;;;5048503;28;20219;-62
2023/04/21 07:52:24;;;;;;;19.90;10.33;;;;;;;;;;5065543;28;20214;-61
2023/04/21 07:54:51;;;;;;;19.97;10.23;;;;;;;;;;5059509;28;20239;-62
2023/04/21 07:57:18;;;;;;;14.37;8.83;;;;;;;;;;5061845;28;20211;-62
2023/04/21 07:59:46;;;;;;;17.83;9.10;;;;;;;;;;5067423;28;20214;-62
2023/04/21 08:02:13;;;;;;;15.27;8.40;;;;;;;;;;5062809;28;20250;-61
2023/04/21 08:04:40;;;;;;;18.40;10.00;;;;;;;;;;5047880;28;20200;-62
2023/04/21 08:07:08;;;;;;;14.87;9.37;;;;;;;;;;5047613;28;20207;-62
2023/04/21 08:09:35;;;;;;;13.87;8.17;;;;;;;;;;5047944;28;20212;-61
2023/04/21 08:12:03;;;;;;;14.13;8.30;;;;;;;;;;5047855;28;20247;-61
2023/04/21 08:14:31;;;;;;;14.33;7.60;;;;;;;;;;5047911;28;20207;-61
2023/04/21 08:16:59;;;;;;;17.70;8.93;;;;;;;;;;5048839;28;20203;-62
2023/04/21 08:19:26;;;;;;;19.30;10.07;;;;;;;;;;5048218;28;20215;-62
2023/04/21 08:21:53;;;;;;;14.60;7.10;;;;;;;;;;5047930;28;20208;-61
2023/04/21 08:24:20;;;;;;;10.63;7.10;;;;;;;;;;5064423;28;20606;-62
2023/04/21 08:26:47;;;;;;;13.20;7.23;;;;;;;;;;5064314;28;20230;-61
2023/04/21 08:29:15;;;;;;;13.73;8.13;;;;;;;;;;5068049;28;20237;-62
2023/04/21 08:31:42;;;;;;;15.03;8.50;;;;;;;;;;5067937;28;20215;-62
2023/04/21 08:34:10;;;;;;;13.07;7.73;;;;;;;;;;5065962;28;20207;-62
2023/04/21 08:36:37;;;;;;;13.17;8.20;;;;;;;;;;5050876;28;20223;-61
2023/04/21 08:39:04;;;;;;;13.10;7.87;;;;;;;;;;5047042;28;20246;-63
2023/04/21 08:41:31;;;;;;;13.97;7.37;;;;;;;;;;5056385;28;20230;-62
2023/04/21 08:43:58;;;;;;;11.87;7.60;;;;;;;;;;5066071;28;20210;-61
2023/04/21 08:46:26;;;;;;;11.27;7.30;;;;;;;;;;5055367;28;20211;-61
2023/04/21 08:48:53;;;;;;;13.57;7.87;;;;;;;;;;5047662;28;20211;-61
2023/04/21 08:51:23;;;;;;;9.40;6.53;;;;;;;;;;5047742;28;20277;-62
2023/04/21 08:53:50;;;;;;;10.53;6.67;;;;;;;;;;5048263;28;20691;-61
2023/04/21 08:56:17;;;;;;;10.27;6.83;;;;;;;;;;5056951;28;20231;-61
2023/04/21 08:58:44;;;;;;;11.63;6.60;;;;;;;;;;5046254;28;20218;-61
2023/04/21 09:01:11;;;;;;;7.37;5.53;;;;;;;;;;5048167;28;20533;-62
2023/04/21 09:03:38;;;;;;;5.40;4.53;;;;;;;;;;5061029;28;20204;-61
2023/04/21 09:06:06;;;;;;;10.10;6.87;;;;;;;;;;5048338;28;20200;-62
2023/04/21 09:08:35;;;;;;;9.03;6.43;;;;;;;;;;5067645;28;20214;-62
2023/04/21 09:11:02;;;;;;;11.87;6.50;;;;;;;;;;5066629;28;20202;-61
2023/04/21 09:13:30;;;;;;;10.40;6.47;;;;;;;;;;5056961;28;20214;-62
2023/04/21 09:15:57;;;;;;;9.23;6.07;;;;;;;;;;5046716;28;20234;-61
2023/04/21 09:18:25;;;;;;;10.27;6.27;;;;;;;;;;5045439;28;20239;-62
2023/04/21 09:21:05;;;;;;;13.60;7.57;;;;;;;;;;5045883;28;20215;-61
2023/04/21 09:23:32;;;;;;;11.30;6.33;;;;;;;;;;5049659;28;21021;-62
2023/04/21 09:26:03;;;;;;;13.27;7.13;;;;;;;;;;5065103;28;20207;-62
2023/04/21 09:28:32;;;;;;;8.83;6.27;;;;;;;;;;5058039;28;20202;-61
2023/04/21 09:30:59;;;;;;;9.77;6.13;;;;;;;;;;5049458;28;20242;-61
2023/04/21 09:33:26;;;;;;;11.07;7.03;;;;;;;;;;5066531;28;20206;-60
2023/04/21 09:35:53;;;;;;;10.97;7.67;;;;;;;;;;5067509;28;20646;-63
2023/04/21 09:38:22;;;;;;;12.80;7.10;;;;;;;;;;5048551;28;20219;-63
2023/04/21 09:40:57;;;;;;;8.77;5.60;;;;;;;;;;5056754;28;20247;-63
2023/04/21 09:43:26;;;;;;;9.57;6.00;;;;;;;;;;5062501;28;20235;-63
2023/04/21 09:45:54;;;;;;;11.23;6.67;;;;;;;;;;5061890;28;20214;-63
2023/04/21 09:48:22;;;;;;;11.53;5.87;;;;;;;;;;5051858;28;20419;-63
2023/04/21 09:50:49;;;;;;;7.97;5.27;;;;;;;;;;5048467;28;20542;-61
2023/04/21 09:53:18;;;;;;;8.43;5.97;;;;;;;;;;5052032;28;20337;-59
2023/04/21 09:55:46;;;;;;;9.57;6.25;;;;;;;;;;5052588;28;20250;-60
2023/04/21 09:58:14;;;;;;;11.65;6.57;;;;;;;;;;5059107;28;20204;-62
2023/04/21 10:00:43;;;;;;;10.70;5.63;;;;;;;;;;5063694;28;20555;-61
2023/04/21 10:03:11;;;;;;;11.73;6.72;;;;;;;;;;5069195;28;20264;-61
2023/04/21 10:05:38;;;;;;;11.35;6.60;;;;;;;;;;5064496;28;20712;-61
2023/04/21 10:08:06;;;;;;;16.05;9.13;;;;;;;;;;5065757;28;20573;-61
2023/04/21 10:10:34;;;;;;;10.70;7.28;;;;;;;;;;5050003;28;20208;-61
2023/04/21 10:13:17;;;;;;;12.82;7.60;;;;;;;;;;5068292;28;20207;-64
2023/04/21 10:15:45;;;;;;;9.27;5.82;;;;;;;;;;5061176;28;20949;-62
2023/04/21 10:18:14;;;;;;;11.40;6.88;;;;;;;;;;5070053;28;20211;-61
2023/04/21 10:20:53;;;;;;;7.15;5.70;;;;;;;;;;5061809;28;20739;-60
2023/04/21 10:23:27;;;;;;;3.58;2.88;;;;;;;;;;5049962;28;20242;-58
2023/04/21 10:25:59;;;;;;;11.45;6.95;;;;;;;;;;5060519;28;20226;-59
2023/04/21 10:28:39;;;;;;;10.52;6.65;;;;;;;;;;5061673;28;20222;-61
2023/04/21 10:31:19;;;;;;;12.27;6.63;;;;;;;;;;5050103;28;20207;-61
2023/04/21 10:34:01;;;;;;;8.52;5.72;;;;;;;;;;5060194;28;20298;-62
2023/04/21 10:36:28;;;;;;;11.90;6.90;;;;;;;;;;5067997;28;20238;-61
2023/04/21 10:38:56;;;;;;;8.65;6.40;;;;;;;;;;5052031;28;20214;-62
2023/04/21 10:41:27;;;;;;;9.45;5.88;;;;;;;;;;5069405;28;20247;-62
2023/04/21 10:43:54;;;;;;;9.88;6.57;;;;;;;;;;5069580;28;20219;-62
2023/04/21 10:46:36;;;;;;;6.45;4.65;;;;;;;;;;5068782;28;20210;-62
2023/04/21 10:49:07;;;;;;;9.55;5.85;;;;;;;;;;5067568;28;20629;-62
2023/04/21 10:51:54;;;;;;;11.02;6.13;;;;;;;;;;5068971;28;20704;-62
2023/04/21 10:54:22;;;;;;;6.72;5.28;;;;;;;;;;5069300;28;20213;-62
2023/04/21 10:56:50;;;;;;;11.48;5.32;;;;;;;;;;5069174;28;20334;-62
2023/04/21 10:59:17;;;;;;;11.02;7.03;;;;;;;;;;5069559;28;20649;-62
2023/04/21 11:01:44;;;;;;;17.42;6.88;;;;;;;;;;5069391;28;20301;-62
2023/04/21 11:04:15;;;;;;;12.38;6.82;;;;;;;;;;5069230;28;20211;-62
2023/04/21 11:06:42;;;;;;;12.05;7.03;;;;;;;;;;5068393;28;20211;-62
2023/04/21 11:09:09;;;;;;;9.10;5.18;;;;;;;;;;5069323;28;20215;-63
2023/04/21 11:11:36;;;;;;;12.55;6.05;;;;;;;;;;5067611;28;20299;-62
2023/04/21 11:14:04;;;;;;;7.78;6.10;;;;;;;;;;5052463;28;20216;-62
2023/04/21 11:16:31;;;;;;;9.10;5.85;;;;;;;;;;5048583;28;20231;-62
2023/04/21 11:18:58;;;;;;;11.90;6.75;;;;;;;;;;5063272;28;20206;-62
2023/04/21 11:21:29;;;;;;;11.18;6.20;;;;;;;;;;5068737;28;20637;-62
2023/04/21 11:23:57;;;;;;;8.55;5.22;;;;;;;;;;5068717;28;20223;-62
2023/04/21 11:26:31;;;;;;;7.82;5.40;;;;;;;;;;5068497;28;20218;-62
2023/04/21 11:29:00;;;;;;;7.30;5.35;;;;;;;;;;5069016;28;20207;-62
2023/04/21 11:31:29;;;;;;;10.38;6.30;;;;;;;;;;5060143;28;20699;-61
2023/04/21 11:33:57;;;;;;;6.25;5.03;;;;;;;;;;5049882;28;20203;-63
2023/04/21 11:36:24;;;;;;;8.10;5.63;;;;;;;;;;5066255;28;20276;-61
2023/04/21 11:38:52;;;;;;;7.68;5.40;;;;;;;;;;5062631;28;20287;-64
2023/04/21 11:41:23;;;;;;;6.25;4.90;;;;;;;;;;5052885;28;20235;-63
2023/04/21 11:43:50;;;;;;;9.35;5.05;;;;;;;;;;5055370;28;20203;-61
2023/04/21 11:46:17;;;;;;;7.00;4.30;;;;;;;;;;5065847;28;20199;-63
2023/04/21 11:48:45;;;;;;;7.35;4.82;;;;;;;;;;5055100;28;20211;-63
2023/04/21 11:51:16;;;;;;;9.00;6.25;;;;;;;;;;5049474;28;20552;-62
2023/04/21 11:53:43;;;;;;;5.43;4.05;;;;;;;;;;5068315;28;20720;-62
2023/04/21 11:56:11;;;;;;;6.25;4.45;;;;;;;;;;5055908;28;20227;-62
2023/04/21 11:58:39;;;;;;;5.03;4.32;;;;;;;;;;5053758;28;20306;-62
2023/04/21 12:01:09;;;;;;;6.25;4.40;;;;;;;;;;5046502;28;20215;-62
2023/04/21 12:03:36;;;;;;;7.28;5.13;;;;;;;;;;5063795;28;20214;-61
2023/04/21 12:06:03;;;;;;;8.88;5.65;;;;;;;;;;5056027;28;20283;-61
2023/04/21 12:08:30;;;;;;;8.90;5.88;;;;;;;;;;5053378;28;20200;-62
2023/04/21 12:10:58;;;;;;;9.70;5.90;;;;;;;;;;5060927;28;20230;-61
2023/04/21 12:13:27;;;;;;;5.53;4.22;;;;;;;;;;5067804;28;20310;-62
2023/04/21 12:15:54;;;;;;;6.03;5.25;;;;;;;;;;5065772;28;20697;-61
2023/04/21 12:18:21;;;;;;;7.45;5.32;;;;;;;;;;5067348;28;20219;-62
2023/04/21 12:20:52;;;;;;;9.98;5.85;;;;;;;;;;5054702;28;20206;-62
2023/04/21 12:23:19;;;;;;;8.07;5.60;;;;;;;;;;5068014;28;20451;-62
2023/04/21 12:25:47;;;;;;;6.45;3.60;;;;;;;;;;5051453;28;20623;-62
2023/04/21 12:28:16;;;;;;;5.53;3.45;;;;;;;;;;5047736;28;20207;-62
2023/04/21 12:30:45;;;;;;;5.38;4.80;;;;;;;;;;5050789;28;20249;-61
2023/04/21 12:33:12;;;;;;;7.72;5.63;;;;;;;;;;5057806;28;20915;-62
2023/04/21 12:35:50;;;;;;;7.25;5.05;;;;;;;;;;5067098;28;20669;-62
2023/04/21 12:38:17;;;;;;;4.30;3.97;;;;;;;;;;5060214;28;20217;-62
2023/04/21 12:40:44;;;;;;;9.18;5.85;;;;;;;;;;5057473;28;20230;-62
2023/04/21 12:43:11;;;;;;;5.50;4.38;;;;;;;;;;5064955;28;20957;-62
2023/04/21 12:45:38;;;;;;;7.95;5.40;;;;;;;;;;5064880;28;20207;-61
2023/04/21 12:48:12;;;;;;;8.05;5.45;;;;;;;;;;5059970;28;20248;-62
2023/04/21 12:50:39;;;;;;;6.68;5.18;;;;;;;;;;5070143;28;20666;-61
2023/04/21 12:53:06;;;;;;;6.93;5.13;;;;;;;;;;5065441;28;20218;-62
2023/04/21 12:55:35;;;;;;;6.05;4.78;;;;;;;;;;5050107;28;20215;-62
2023/04/21 12:58:02;;;;;;;8.38;5.05;;;;;;;;;;5066846;28;20315;-62
2023/04/21 13:00:29;;;;;;;9.30;5.55;;;;;;;;;;5067177;28;20651;-62
2023/04/21 13:02:56;;;;;;;5.55;5.03;;;;;;;;;;5052720;28;20678;-61
2023/04/21 13:05:24;;;;;;;4.63;4.18;;;;;;;;;;5057096;28;20215;-61
2023/04/21 13:07:51;;;;;;;6.22;4.70;;;;;;;;;;5066838;28;20206;-62
2023/04/21 13:10:18;;;;;;;6.68;4.72;;;;;;;;;;5066844;28;20219;-62
2023/04/21 13:12:45;;;;;;;5.45;4.25;;;;;;;;;;5067169;28;20264;-62
2023/04/21 13:15:12;;;;;;;3.53;3.25;;;;;;;;;;5067124;28;20217;-62
2023/04/21 13:17:39;;;;;;;5.40;4.90;;;;;;;;;;5066752;28;20239;-62
2023/04/21 13:20:07;;;;;;;6.88;4.82;;;;;;;;;;5066971;28;20669;-63
2023/04/21 13:22:35;;;;;;;7.55;4.40;;;;;;;;;;5066797;28;20231;-62
2023/04/21 13:25:03;;;;;;;5.45;4.95;;;;;;;;;;5066796;28;20230;-63
2023/04/21 13:27:32;;;;;;;6.32;4.57;;;;;;;;;;5061457;28;20196;-62
2023/04/21 13:29:59;;;;;;;6.30;5.25;;;;;;;;;;5049665;28;20670;-61
2023/04/21 13:32:26;;;;;;;6.68;5.07;;;;;;;;;;5049706;28;20261;-63
2023/04/21 13:34:53;;;;;;;9.98;5.90;;;;;;;;;;5052051;28;20200;-63
2023/04/21 13:37:20;;;;;;;6.35;4.57;;;;;;;;;;5050653;28;20641;-63
2023/04/21 13:39:49;;;;;;;7.93;5.70;;;;;;;;;;5051528;28;20685;-65
2023/04/21 13:42:16;;;;;;;7.90;3.35;;;;;;;;;;5050474;28;20726;-64
2023/04/21 13:44:43;;;;;;;6.70;5.53;;;;;;;;;;5050057;28;20210;-63
2023/04/21 13:47:10;;;;;;;4.78;4.35;;;;;;;;;;5050100;28;20210;-63
2023/04/21 13:49:38;;;;;;;5.28;4.32;;;;;;;;;;5066672;28;20637;-61
2023/04/21 13:52:05;;;;;;;8.00;5.22;;;;;;;;;;5052313;28;20200;-61
2023/04/21 13:54:32;;;;;;;5.82;4.18;;;;;;;;;;5052923;28;20223;-62
2023/04/21 13:57:01;;;;;;;4.28;3.88;;;;;;;;;;5057227;28;20223;-62
2023/04/21 13:59:28;;;;;;;5.55;4.45;;;;;;;;;;5065228;28;20207;-61
2023/04/21 14:01:55;;;;;;;6.38;4.72;;;;;;;;;;5050367;28;20674;-62
2023/04/21 14:04:22;;;;;;;6.88;5.00;;;;;;;;;;5057906;28;20207;-61
2023/04/21 14:06:49;;;;;;;5.10;4.68;;;;;;;;;;5050184;28;20210;-61
2023/04/21 14:09:16;;;;;;;4.32;3.83;;;;;;;;;;5063038;28;20580;-64
2023/04/21 14:11:43;;;;;;;4.68;3.60;;;;;;;;;;5070071;28;20211;-62
2023/04/21 14:14:12;;;;;;;4.78;3.92;;;;;;;;;;5069945;28;20738;-61
2023/04/21 14:16:39;;;;;;;5.38;4.38;;;;;;;;;;5062114;28;20258;-61
2023/04/21 14:19:06;;;;;;;4.88;4.03;;;;;;;;;;5049399;28;20743;-61
2023/04/21 14:21:33;;;;;;;4.25;3.85;;;;;;;;;;5050003;28;20231;-61
2023/04/21 14:24:00;;;;;;;4.63;3.72;;;;;;;;;;5049440;28;20239;-63
2023/04/21 14:26:27;;;;;;;4.35;3.88;;;;;;;;;;5056412;28;20211;-62
2023/04/21 14:28:55;;;;;;;3.70;3.42;;;;;;;;;;5069892;28;20222;-62
2023/04/21 14:31:23;;;;;;;3.78;3.45;;;;;;;;;;5065947;28;20230;-62
2023/04/21 14:33:50;;;;;;;3.70;3.40;;;;;;;;;;5058757;28;20202;-62
2023/04/21 14:36:17;;;;;;;4.82;3.70;;;;;;;;;;5064527;28;20214;-63